Time;durP1;ratioP1;P1;durP2;ratioP2;P2;SDS_P1;SDS_P2;PMS_P1;PMS_P2;Temp;Humidity;BMP_temperature;BMP_pressure;BME280_temperature;BME280_humidity;BME280_pressure;Samples;Min_cycle;Max_cycle;Signal;HPM_P1;HPM_P2
2024/05/06 00:00:07;;;;;;;9.25;5.75;;;;;;;11.62;100.00;100566.06;10921894;26;21191;-19
2024/05/06 00:05:16;;;;;;;10.50;5.97;;;;;;;11.64;100.00;100572.69;10939717;26;20597;-20
2024/05/06 00:10:20;;;;;;;7.97;5.32;;;;;;;11.69;100.00;100579.78;10932529;26;20022;-19
2024/05/06 00:15:26;;;;;;;11.27;6.22;;;;;;;11.75;100.00;100578.47;10909159;26;20020;-19
2024/05/06 00:20:31;;;;;;;12.43;7.28;;;;;;;11.80;100.00;100572.91;10944895;26;20145;-19
2024/05/06 00:25:34;;;;;;;11.38;7.18;;;;;;;11.78;100.00;100577.06;10916290;26;20586;-19
2024/05/06 00:30:41;;;;;;;11.13;6.97;;;;;;;11.77;100.00;100568.19;10907554;26;20018;-20
2024/05/06 00:35:45;;;;;;;14.63;7.90;;;;;;;11.75;100.00;100572.28;10935090;26;20048;-20
2024/05/06 00:40:51;;;;;;;11.85;7.70;;;;;;;11.80;100.00;100574.81;10941014;26;20101;-20
2024/05/06 00:45:58;;;;;;;14.00;8.48;;;;;;;11.78;100.00;100563.59;10933268;26;20015;-20
2024/05/06 00:51:02;;;;;;;14.00;8.50;;;;;;;11.80;100.00;100555.97;10921726;26;20084;-20
2024/05/06 00:56:07;;;;;;;15.10;8.70;;;;;;;11.81;100.00;100544.09;10944339;26;20017;-21
2024/05/06 01:01:15;;;;;;;12.65;7.90;;;;;;;11.84;100.00;100548.81;10908382;26;20041;-21
2024/05/06 01:06:20;;;;;;;13.52;8.07;;;;;;;11.88;100.00;100550.50;10915200;26;21076;-19
2024/05/06 01:11:24;;;;;;;16.58;9.60;;;;;;;11.90;98.68;100548.28;10889527;26;20670;-20
2024/05/06 01:16:31;;;;;;;16.42;9.63;;;;;;;11.96;99.26;100552.34;10919821;26;20663;-20
2024/05/06 01:21:42;;;;;;;15.32;9.45;;;;;;;12.02;99.22;100538.66;10905104;26;20771;-20
2024/05/06 01:26:49;;;;;;;13.45;8.27;;;;;;;12.02;99.39;100542.16;10878738;26;20439;-20
2024/05/06 01:31:53;;;;;;;18.10;10.15;;;;;;;12.04;98.76;100539.91;10898173;26;25586;-20
2024/05/06 01:36:57;;;;;;;15.60;9.40;;;;;;;12.04;98.42;100533.75;10909143;26;20788;-20
2024/05/06 01:42:03;;;;;;;18.38;9.38;;;;;;;12.05;97.67;100538.00;10907787;26;20028;-20
2024/05/06 01:47:07;;;;;;;17.13;9.00;;;;;;;12.11;100.00;100531.28;10905247;26;22247;-20
2024/05/06 01:52:11;;;;;;;15.30;8.52;;;;;;;12.10;99.63;100527.03;10901540;26;20255;-20
2024/05/06 01:57:18;;;;;;;15.55;9.50;;;;;;;12.10;99.91;100524.31;10904276;26;20018;-20
2024/05/06 02:02:22;;;;;;;15.65;9.15;;;;;;;12.13;97.95;100526.34;10901110;26;20026;-19
2024/05/06 02:07:25;;;;;;;;;;;;;;;12.16;98.15;100526.47;10900221;26;22123;-19
2024/05/06 02:12:32;;;;;;;14.48;8.55;;;;;;;12.19;96.22;100516.94;10897030;26;19932;-20
2024/05/06 02:17:36;;;;;;;14.98;8.55;;;;;;;12.17;97.86;100508.41;10900678;26;20056;-17
2024/05/06 02:22:39;;;;;;;17.38;9.13;;;;;;;12.12;97.22;100509.41;10890072;26;20007;-17
2024/05/06 02:27:46;;;;;;;15.80;9.15;;;;;;;12.15;97.47;100505.28;10884865;26;20616;-17
2024/05/06 02:32:50;;;;;;;14.63;9.18;;;;;;;12.16;98.70;100499.53;10887223;26;22362;-16
2024/05/06 02:37:53;;;;;;;16.10;9.27;;;;;;;12.16;97.03;100491.47;10922200;26;20022;-18
2024/05/06 02:43:00;;;;;;;16.42;8.75;;;;;;;12.16;96.96;100502.25;10899786;26;20019;-16
2024/05/06 02:48:04;;;;;;;14.65;8.88;;;;;;;12.17;96.24;100500.34;10911049;26;20047;-17
2024/05/06 02:53:08;;;;;;;14.43;8.73;;;;;;;12.18;95.71;100494.63;10908757;26;20010;-16
2024/05/06 02:58:14;;;;;;;17.17;10.00;;;;;;;12.19;95.15;100506.97;10904439;26;24503;-16
2024/05/06 03:03:18;;;;;;;15.32;9.13;;;;;;;12.20;94.22;100489.69;10910173;26;20011;-16
2024/05/06 03:08:22;;;;;;;15.57;9.00;;;;;;;12.24;94.63;100493.28;10910028;26;20541;-17
2024/05/06 03:13:28;;;;;;;16.65;9.48;;;;;;;12.24;93.74;100479.03;10906367;26;20712;-17
2024/05/06 03:18:33;;;;;;;17.88;9.45;;;;;;;12.22;93.24;100481.28;10912089;26;21410;-17
2024/05/06 03:23:39;;;;;;;17.77;9.85;;;;;;;12.24;92.95;100484.41;10914843;26;20133;-18
2024/05/06 03:28:47;;;;;;;16.83;9.77;;;;;;;12.22;92.49;100482.06;10910365;26;22212;-16
2024/05/06 03:33:51;;;;;;;15.30;9.18;;;;;;;12.19;92.50;100480.03;10910359;26;20010;-16
2024/05/06 03:38:56;;;;;;;18.77;10.27;;;;;;;12.20;92.31;100486.19;10908326;26;20097;-16
2024/05/06 03:44:03;;;;;;;15.98;8.80;;;;;;;12.22;91.82;100489.34;10909920;26;20122;-17
2024/05/06 03:49:07;;;;;;;16.80;9.13;;;;;;;12.26;91.84;100482.94;10907428;26;20042;-16
2024/05/06 03:54:11;;;;;;;15.77;9.55;;;;;;;12.27;92.38;100481.03;10905217;26;20023;-20
2024/05/06 03:59:17;;;;;;;16.98;9.35;;;;;;;12.25;92.17;100488.69;10918623;26;20134;-15
2024/05/06 04:04:21;;;;;;;18.90;9.98;;;;;;;12.29;92.60;100478.84;10907440;26;20156;-16
2024/05/06 04:09:25;;;;;;;15.15;8.90;;;;;;;12.27;91.71;100479.16;10898081;26;20457;-17
2024/05/06 04:14:31;;;;;;;16.58;9.30;;;;;;;12.34;90.83;100472.44;10889196;26;24037;-17
2024/05/06 04:19:35;;;;;;;16.45;9.13;;;;;;;12.41;90.53;100469.97;10907707;26;20217;-17
2024/05/06 04:30:01;;;;;;;14.88;8.88;;;;;;;12.50;89.42;100471.44;10917053;26;20015;-16
2024/05/06 04:35:06;;;;;;;17.00;8.88;;;;;;;12.48;89.87;100479.06;10920015;26;20015;-16
2024/05/06 04:40:11;;;;;;;18.70;9.23;;;;;;;12.52;89.79;100479.97;10915727;26;20026;-16
2024/05/06 04:45:17;;;;;;;16.00;8.52;;;;;;;12.54;89.46;100474.22;10919353;26;20827;-17
2024/05/06 04:50:21;;;;;;;17.33;8.98;;;;;;;12.58;88.55;100477.81;10915341;26;25820;-17
2024/05/06 04:55:25;;;;;;;16.13;8.68;;;;;;;12.62;88.76;100473.31;10907157;26;20427;-18
2024/05/06 05:00:31;;;;;;;15.13;8.48;;;;;;;12.65;88.94;100480.75;10908702;26;20008;-17
2024/05/06 05:05:35;;;;;;;15.40;8.60;;;;;;;12.70;88.32;100483.22;10878181;26;20159;-16
2024/05/06 05:10:39;;;;;;;18.50;9.13;;;;;;;12.77;86.92;100486.16;10922669;26;20011;-17
2024/05/06 05:15:45;;;;;;;16.55;8.73;;;;;;;12.80;87.10;100481.97;10941392;26;20047;-17
2024/05/06 05:20:49;;;;;;;14.52;8.35;;;;;;;12.81;87.16;100488.94;10917730;26;20209;-16
2024/05/06 05:25:53;;;;;;;19.25;8.68;;;;;;;12.85;87.33;100481.75;10920973;26;20027;-15
2024/05/06 05:30:59;;;;;;;18.02;8.73;;;;;;;12.87;87.44;100474.91;10920848;26;20045;-17
2024/05/06 05:36:03;;;;;;;16.73;8.30;;;;;;;12.88;87.69;100489.94;10922209;26;20027;-17
2024/05/06 05:41:08;;;;;;;19.20;9.77;;;;;;;12.98;86.23;100493.28;10897918;26;20030;-17
2024/05/06 05:46:14;;;;;;;14.23;7.68;;;;;;;12.99;87.06;100487.56;10928424;26;20552;-17
2024/05/06 05:51:18;;;;;;;15.15;8.27;;;;;;;13.06;85.85;100495.84;10908277;26;20146;-16
2024/05/06 05:56:22;;;;;;;15.25;8.05;;;;;;;13.06;87.22;100493.16;10908296;26;20114;-16
2024/05/06 06:01:29;;;;;;;14.75;8.00;;;;;;;13.09;86.44;100486.31;10900270;26;20465;-16
2024/05/06 06:06:33;;;;;;;14.43;7.22;;;;;;;13.13;86.65;100501.47;10903686;26;20353;-16
2024/05/06 06:11:37;;;;;;;13.20;7.75;;;;;;;13.16;86.19;100502.69;10904947;26;20011;-17
2024/05/06 06:16:44;;;;;;;15.52;7.95;;;;;;;13.16;86.67;100500.78;10902098;26;20019;-16
2024/05/06 06:21:50;;;;;;;14.88;7.75;;;;;;;13.20;85.48;100501.66;10892261;26;21047;-16
2024/05/06 06:26:54;;;;;;;14.93;7.53;;;;;;;13.29;83.51;100490.75;10911201;26;24384;-16
2024/05/06 06:32:00;;;;;;;14.00;7.47;;;;;;;13.36;82.58;100500.94;10916559;26;20655;-16
2024/05/06 06:37:04;;;;;;;15.45;7.53;;;;;;;13.43;82.40;100499.22;10904872;26;20063;-16
2024/05/06 06:42:08;;;;;;;13.32;7.20;;;;;;;13.51;81.37;100492.16;10904479;26;20349;-17
2024/05/06 06:47:14;;;;;;;12.63;6.93;;;;;;;13.56;81.68;100500.78;10912804;26;20686;-16
2024/05/06 06:52:18;;;;;;;12.32;7.13;;;;;;;13.62;80.88;100506.72;10910479;26;20022;-16
2024/05/06 06:57:22;;;;;;;15.38;7.28;;;;;;;13.70;80.96;100511.22;10920196;26;20007;-17
2024/05/06 07:02:28;;;;;;;17.33;8.55;;;;;;;13.76;80.25;100507.13;10912811;26;20209;-16
2024/05/06 07:07:32;;;;;;;13.02;7.57;;;;;;;13.79;79.83;100509.13;10917305;26;20105;-15
2024/05/06 07:12:36;;;;;;;12.18;7.20;;;;;;;13.86;79.90;100513.94;10893148;26;20377;-17
2024/05/06 07:17:43;;;;;;;12.50;7.13;;;;;;;13.94;79.91;100512.22;10908728;26;21214;-17
2024/05/06 07:22:46;;;;;;;12.77;6.97;;;;;;;13.96;79.84;100518.84;10863961;26;21791;-16
2024/05/06 07:27:50;;;;;;;14.27;7.75;;;;;;;14.04;80.10;100517.88;10882705;26;20993;-17
2024/05/06 07:32:57;;;;;;;15.30;7.88;;;;;;;14.07;80.48;100522.59;10902594;26;22005;-17
2024/05/06 07:38:00;;;;;;;14.75;7.85;;;;;;;14.10;80.03;100513.78;10916333;26;21878;-17
2024/05/06 07:43:04;;;;;;;14.13;8.07;;;;;;;14.28;79.86;100516.94;10897222;26;20007;-16
2024/05/06 07:48:11;;;;;;;14.48;8.25;;;;;;;14.41;79.28;100518.44;10922256;26;23105;-17
2024/05/06 07:53:15;;;;;;;15.60;7.80;;;;;;;14.53;78.48;100514.88;10919917;26;20015;-15
2024/05/06 07:58:19;;;;;;;16.30;8.02;;;;;;;14.65;78.99;100512.06;10895653;26;20011;-16
2024/05/06 08:03:25;;;;;;;15.68;8.10;;;;;;;14.75;77.14;100514.22;10922363;26;20027;-17
2024/05/06 08:08:29;;;;;;;13.25;7.65;;;;;;;14.90;76.25;100522.66;10856877;26;20015;-16
2024/05/06 08:13:33;;;;;;;13.95;7.45;;;;;;;15.04;76.42;100510.25;10872794;26;20869;-17
2024/05/06 08:18:39;;;;;;;15.57;8.05;;;;;;;15.12;74.49;100513.91;10950321;26;21912;-16
2024/05/06 08:23:43;;;;;;;16.05;8.05;;;;;;;15.26;73.12;100516.16;10918948;26;20012;-17
2024/05/06 08:28:47;;;;;;;15.15;8.60;;;;;;;15.30;75.07;100519.72;10937057;26;20022;-17
2024/05/06 08:33:53;;;;;;;15.00;8.25;;;;;;;15.49;74.77;100519.72;10874780;26;20112;-16
2024/05/06 08:38:57;;;;;;;14.13;8.57;;;;;;;15.76;72.89;100528.75;10920328;26;20030;-18
2024/05/06 08:44:02;;;;;;;16.73;8.27;;;;;;;15.93;71.25;100528.28;10878766;26;20075;-17
2024/05/06 08:49:09;;;;;;;14.40;7.72;;;;;;;16.16;70.10;100517.53;10911647;26;20634;-17
2024/05/06 08:54:13;;;;;;;14.55;7.38;;;;;;;16.57;68.95;100532.16;10924887;26;20015;-17
2024/05/06 08:59:19;;;;;;;12.73;7.03;;;;;;;16.59;68.31;100534.50;10928579;26;20098;-17
2024/05/06 09:04:26;;;;;;;12.85;7.35;;;;;;;16.93;66.77;100543.53;10937334;26;20031;-17
2024/05/06 09:09:30;;;;;;;12.07;6.50;;;;;;;16.78;67.60;100537.13;10931333;26;20011;-18
2024/05/06 09:14:34;;;;;;;14.15;6.93;;;;;;;17.16;67.53;100546.22;10931753;26;20012;-16
2024/05/06 09:19:43;;;;;;;10.75;6.18;;;;;;;17.21;67.46;100540.47;10948547;26;20007;-18
2024/05/06 09:24:47;;;;;;;13.27;5.72;;;;;;;16.97;63.32;100549.78;10936720;26;20031;-17
2024/05/06 09:29:50;;;;;;;10.25;5.85;;;;;;;16.84;62.16;100543.00;10929665;26;21771;-17
2024/05/06 09:34:58;;;;;;;9.63;5.55;;;;;;;17.20;61.75;100538.91;10929195;26;20010;-18
2024/05/06 09:40:02;;;;;;;11.27;5.60;;;;;;;17.21;64.43;100535.84;10935069;26;20019;-18
2024/05/06 09:45:07;;;;;;;8.15;5.30;;;;;;;17.23;62.91;100536.25;10927445;26;20034;-17
2024/05/06 09:50:16;;;;;;;14.50;6.75;;;;;;;17.30;63.18;100541.00;10914273;26;20091;-18
2024/05/06 09:55:21;;;;;;;9.88;5.75;;;;;;;17.65;61.43;100557.72;10930969;26;20639;-16
2024/05/06 10:00:25;;;;;;;8.95;5.90;;;;;;;18.09;62.53;100546.19;10932134;26;20015;-17
2024/05/06 10:05:32;;;;;;;10.27;6.00;;;;;;;17.82;61.34;100555.56;10929673;26;24789;-16
2024/05/06 10:10:37;;;;;;;10.32;5.88;;;;;;;18.18;59.93;100559.50;10935310;26;20892;-16
2024/05/06 10:15:52;;;;;;;9.82;5.80;;;;;;;17.84;60.24;100543.22;10883842;26;20071;-18
2024/05/06 10:21:13;;;;;;;11.60;5.78;;;;;;;18.23;59.52;100545.56;10813894;26;21940;-17
2024/05/06 10:26:18;;;;;;;7.88;5.15;;;;;;;18.43;59.82;100559.72;10781145;26;22401;-16
2024/05/06 10:31:24;;;;;;;;;;;;;;;18.25;60.33;100554.13;10926879;26;21834;-16
2024/05/06 10:36:35;;;;;;;10.00;5.97;;;;;;;18.29;60.12;100557.66;10931468;26;19940;-17
2024/05/06 10:41:40;;;;;;;8.98;5.50;;;;;;;18.44;59.99;100564.00;10922643;26;21050;-17
2024/05/06 10:46:45;;;;;;;10.77;5.93;;;;;;;18.96;58.54;100563.63;10899926;26;20706;-19
2024/05/06 10:51:52;;;;;;;13.45;6.20;;;;;;;18.90;59.31;100573.31;10951885;26;20011;-17
2024/05/06 10:56:57;;;;;;;10.10;6.40;;;;;;;19.19;58.47;100581.69;10971685;26;20011;-17
2024/05/06 11:02:03;;;;;;;11.43;5.80;;;;;;;18.70;58.21;100580.13;10972063;26;21862;-21
2024/05/06 11:07:10;;;;;;;12.02;6.28;;;;;;;18.73;58.76;100578.63;10943883;26;20014;-20
2024/05/06 11:12:18;;;;;;;10.30;6.57;;;;;;;19.24;58.08;100582.13;10935164;26;20018;-21
2024/05/06 11:17:24;;;;;;;11.70;6.47;;;;;;;19.40;56.61;100586.47;10842716;26;20015;-20
2024/05/06 11:22:37;;;;;;;12.23;7.00;;;;;;;19.11;56.90;100578.16;10794232;26;24241;-21
2024/05/06 11:27:44;;;;;;;9.23;5.50;;;;;;;19.71;57.46;100588.59;10899773;26;20011;-20
2024/05/06 11:32:49;;;;;;;11.05;5.45;;;;;;;18.86;54.30;100582.63;10909398;26;20122;-17
2024/05/06 11:37:55;;;;;;;9.20;5.72;;;;;;;19.06;55.47;100581.19;10924691;26;20607;-18
2024/05/06 11:43:01;;;;;;;10.50;5.90;;;;;;;19.48;55.40;100580.69;10932619;26;20006;-17
2024/05/06 11:48:05;;;;;;;9.07;5.30;;;;;;;19.19;55.06;100590.63;10931687;26;20026;-17
2024/05/06 11:53:12;;;;;;;9.95;5.93;;;;;;;19.19;53.14;100587.91;10934299;26;20195;-17
2024/05/06 11:58:16;;;;;;;10.45;5.20;;;;;;;19.14;55.04;100596.44;10935025;26;20094;-17
2024/05/06 12:03:19;;;;;;;5.70;2.90;;;;;;;19.59;48.92;100588.91;10933261;26;20014;-17
2024/05/06 12:08:26;;;;;;;6.40;4.15;;;;;;;19.22;52.50;100584.44;10942386;26;20120;-18
2024/05/06 12:13:30;;;;;;;7.43;4.85;;;;;;;19.42;51.94;100584.94;10942887;26;20006;-17
2024/05/06 12:18:33;;;;;;;8.82;4.85;;;;;;;19.11;52.55;100591.75;10904817;26;20015;-17
2024/05/06 12:23:40;;;;;;;7.60;4.95;;;;;;;19.16;53.27;100596.06;10908578;26;22608;-17
2024/05/06 12:28:44;;;;;;;7.85;4.50;;;;;;;19.15;52.33;100589.84;10926279;26;20220;-17
2024/05/06 12:33:49;;;;;;;7.32;4.30;;;;;;;19.30;53.63;100589.91;10930979;26;20023;-16
2024/05/06 12:38:56;;;;;;;6.78;4.30;;;;;;;19.50;54.05;100596.63;10939832;26;20101;-17
2024/05/06 12:44:00;;;;;;;7.55;4.45;;;;;;;19.10;54.23;100584.72;10931289;26;20020;-17
2024/05/06 12:49:04;;;;;;;7.80;4.40;;;;;;;19.09;54.73;100596.00;10922322;26;20053;-18
2024/05/06 12:54:10;;;;;;;7.00;4.00;;;;;;;19.16;52.83;100588.69;10929949;26;22567;-20
2024/05/06 12:59:14;;;;;;;6.63;4.20;;;;;;;18.57;53.19;100587.81;10935693;26;20043;-22
2024/05/06 13:04:18;;;;;;;6.63;3.90;;;;;;;18.64;55.38;100597.97;10935071;26;20010;-21
2024/05/06 13:09:25;;;;;;;8.00;3.50;;;;;;;18.67;54.93;100596.44;10933521;26;22802;-21
2024/05/06 13:14:29;;;;;;;6.15;3.30;;;;;;;18.59;54.04;100601.81;10904602;26;20014;-20
2024/05/06 13:19:32;;;;;;;5.75;3.47;;;;;;;18.33;53.85;100600.03;10930117;26;20016;-21
2024/05/06 13:24:39;;;;;;;5.65;3.33;;;;;;;18.32;55.17;100601.19;10912057;26;20088;-20
2024/05/06 13:29:43;;;;;;;5.05;3.20;;;;;;;18.31;54.89;100604.28;10937033;26;20010;-20
2024/05/06 13:34:47;;;;;;;4.78;3.30;;;;;;;18.50;56.43;100606.00;10915333;26;20015;-21
2024/05/06 13:39:54;;;;;;;5.50;3.30;;;;;;;18.52;53.11;100601.75;10930687;26;23306;-20
2024/05/06 13:44:57;;;;;;;6.00;3.45;;;;;;;18.32;53.20;100609.34;10926826;26;20010;-20
2024/05/06 13:50:01;;;;;;;5.90;3.20;;;;;;;18.50;54.79;100608.72;10928285;26;27663;-21
2024/05/06 13:55:08;;;;;;;6.88;3.80;;;;;;;18.18;55.84;100601.03;10927289;26;20071;-21
2024/05/06 14:00:12;;;;;;;6.88;4.00;;;;;;;18.28;55.72;100605.03;10926879;26;20027;-22
2024/05/06 14:05:16;;;;;;;8.30;3.97;;;;;;;18.50;55.88;100601.34;10922949;26;20088;-21
2024/05/06 14:10:23;;;;;;;7.78;4.20;;;;;;;18.49;55.07;100612.59;10944951;26;20016;-20
2024/05/06 14:15:27;;;;;;;6.25;3.80;;;;;;;18.60;56.67;100614.25;10927543;26;20024;-21
2024/05/06 14:20:30;;;;;;;6.85;4.22;;;;;;;18.31;56.65;100615.94;10912952;26;20011;-20
2024/05/06 14:25:37;;;;;;;9.50;4.80;;;;;;;18.04;57.52;100613.69;10917161;26;20058;-20
2024/05/06 14:30:41;;;;;;;6.35;4.25;;;;;;;18.44;56.45;100610.22;10909263;26;20022;-21
2024/05/06 14:35:45;;;;;;;7.05;4.40;;;;;;;18.45;57.36;100622.66;10904888;26;20660;-21
2024/05/06 14:40:53;;;;;;;8.95;4.55;;;;;;;18.58;57.43;100621.22;10906943;26;20422;-18
2024/05/06 14:45:57;;;;;;;8.43;4.07;;;;;;;18.67;57.48;100623.66;10908308;26;20011;-18
2024/05/06 14:51:01;;;;;;;7.88;4.40;;;;;;;18.36;57.22;100625.69;10897865;26;20624;-17
2024/05/06 14:56:08;;;;;;;11.07;4.50;;;;;;;18.44;58.52;100626.53;10907559;26;24308;-18
2024/05/06 15:01:12;;;;;;;7.55;4.80;;;;;;;18.26;58.02;100635.31;10900846;26;20097;-16
2024/05/06 15:06:16;;;;;;;8.48;4.80;;;;;;;18.17;57.33;100645.69;10921702;26;20007;-16
2024/05/06 15:11:22;;;;;;;7.82;4.50;;;;;;;18.28;59.37;100646.59;10899663;26;20007;-17
2024/05/06 15:16:27;;;;;;;7.20;4.65;;;;;;;18.05;61.13;100647.84;10900044;26;20030;-18
2024/05/06 15:21:31;;;;;;;8.93;4.70;;;;;;;17.93;60.86;100652.38;10890802;26;20977;-18
2024/05/06 15:26:37;;;;;;;10.52;5.00;;;;;;;17.86;59.99;100651.50;10916174;26;20015;-18
2024/05/06 15:31:41;;;;;;;7.95;4.75;;;;;;;17.97;61.04;100653.22;10903676;26;20720;-17
2024/05/06 15:36:45;;;;;;;6.93;4.65;;;;;;;17.84;60.78;100665.47;10920247;26;20026;-16
2024/05/06 15:41:52;;;;;;;7.63;4.45;;;;;;;17.93;60.28;100667.91;10916871;26;20014;-18
2024/05/06 15:46:56;;;;;;;8.93;4.65;;;;;;;17.87;61.55;100663.94;10935884;26;20453;-17
2024/05/06 15:52:00;;;;;;;8.15;4.13;;;;;;;17.88;59.09;100670.94;10898244;26;20044;-17
2024/05/06 15:57:06;;;;;;;;;;;;;;;17.85;61.95;100671.69;10921406;26;20012;-17
2024/05/06 16:02:10;;;;;;;9.18;3.85;;;;;;;17.85;64.87;100683.34;10865886;26;19932;-20
2024/05/06 16:07:13;;;;;;;;;;;;;;;17.78;62.50;100685.16;10908964;26;20106;-20
2024/05/06 16:12:20;;;;;;;6.15;3.85;;;;;;;17.66;62.85;100694.31;10911375;26;20047;-20
2024/05/06 16:17:23;;;;;;;6.70;3.40;;;;;;;17.37;64.91;100684.97;10913835;26;21452;-20
2024/05/06 16:22:27;;;;;;;;;;;;;;;17.38;65.26;100690.03;10905821;26;20022;-20
2024/05/06 16:27:34;;;;;;;7.00;3.95;;;;;;;17.36;66.48;100695.06;10885183;26;20040;-20
2024/05/06 16:32:38;;;;;;;6.78;3.92;;;;;;;17.29;65.87;100699.59;10907301;26;20650;-20
2024/05/06 16:37:41;;;;;;;7.20;4.30;;;;;;;17.26;66.05;100706.53;10906487;26;20015;-20
2024/05/06 16:42:48;;;;;;;;;;;;;;;17.13;68.39;100710.56;10907313;26;20029;-20
2024/05/06 16:47:51;;;;;;;6.25;4.07;;;;;;;17.07;68.44;100725.56;10905028;26;20704;-20
2024/05/06 16:52:55;;;;;;;;;;;;;;;16.91;70.23;100722.94;10884330;26;20861;-19
2024/05/06 16:58:01;;;;;;;7.93;4.40;;;;;;;16.91;72.24;100722.94;10906383;26;20280;-20
2024/05/06 17:03:05;;;;;;;8.00;4.55;;;;;;;16.81;76.39;100731.69;10903833;26;20019;-20
2024/05/06 17:08:11;;;;;;;8.57;4.63;;;;;;;16.67;78.32;100740.34;10890500;26;20626;-20
2024/05/06 17:13:19;;;;;;;7.88;4.63;;;;;;;16.47;78.75;100741.50;10907000;26;20716;-20
2024/05/06 17:18:23;;;;;;;9.10;4.82;;;;;;;16.35;79.71;100760.63;10908557;26;20015;-20
2024/05/06 17:23:26;;;;;;;;;;;;;;;16.22;80.64;100762.69;10875333;26;20133;-20
2024/05/06 17:28:33;;;;;;;11.90;6.70;;;;;;;16.19;83.34;100770.75;10911357;26;21067;-21
2024/05/06 17:33:37;;;;;;;12.45;6.32;;;;;;;16.09;86.83;100777.50;10902596;26;20023;-20
2024/05/06 17:38:40;;;;;;;9.52;5.30;;;;;;;15.97;88.98;100789.19;10918021;26;20430;-21
2024/05/06 17:43:47;;;;;;;8.52;5.47;;;;;;;15.92;92.50;100789.47;10919713;26;20007;-20
2024/05/06 17:48:51;;;;;;;9.07;5.38;;;;;;;15.86;93.14;100795.53;10907289;26;21124;-19
2024/05/06 17:53:55;;;;;;;10.77;6.00;;;;;;;15.72;93.03;100809.50;10904121;26;22314;-20
2024/05/06 17:59:03;;;;;;;10.82;6.68;;;;;;;15.68;92.12;100811.34;10907329;26;20063;-20
2024/05/06 18:04:07;;;;;;;9.88;6.35;;;;;;;15.55;92.26;100821.50;10911195;26;20026;-20
2024/05/06 18:09:11;;;;;;;11.75;6.45;;;;;;;15.53;91.85;100825.69;10904051;26;20015;-20
2024/05/06 18:14:17;;;;;;;10.88;6.80;;;;;;;15.39;91.35;100839.66;10900239;26;20015;-21
2024/05/06 18:19:22;;;;;;;10.13;6.05;;;;;;;15.30;94.22;100844.44;10907680;26;20812;-21
2024/05/06 18:24:26;;;;;;;10.55;6.35;;;;;;;15.19;95.02;100849.56;10897419;26;20693;-20
2024/05/06 18:29:33;;;;;;;9.80;6.90;;;;;;;15.20;94.82;100850.34;10916064;26;20023;-20
2024/05/06 18:34:40;;;;;;;12.27;6.78;;;;;;;15.19;96.82;100860.38;10908361;26;20639;-20
2024/05/06 18:39:45;;;;;;;14.15;7.53;;;;;;;15.09;97.30;100863.56;10904409;26;20050;-20
2024/05/06 18:44:51;;;;;;;12.73;7.68;;;;;;;14.99;96.38;100870.28;10882787;26;20011;-20
2024/05/06 18:49:55;;;;;;;13.05;8.07;;;;;;;14.94;96.02;100870.53;10883132;26;20019;-20
2024/05/06 18:54:59;;;;;;;14.43;6.50;;;;;;;14.87;98.74;100878.41;10919922;26;20010;-20
2024/05/06 19:00:06;;;;;;;11.15;6.85;;;;;;;14.79;100.00;100879.34;10896798;26;20019;-19
2024/05/06 19:05:10;;;;;;;16.02;7.95;;;;;;;14.72;99.56;100895.34;10887775;26;20518;-19
2024/05/06 19:10:14;;;;;;;12.98;7.93;;;;;;;14.64;99.93;100899.75;10886864;26;20024;-20
2024/05/06 19:15:22;;;;;;;13.95;8.30;;;;;;;14.60;100.00;100906.19;10902582;26;20030;-20
2024/05/06 19:20:27;;;;;;;13.98;8.15;;;;;;;14.53;100.00;100907.56;10904540;26;20822;-19
2024/05/06 19:25:31;;;;;;;15.45;8.20;;;;;;;14.37;100.00;100908.56;10896841;26;20112;-19
2024/05/06 19:30:37;;;;;;;13.30;8.13;;;;;;;14.29;100.00;100914.88;10931903;26;20444;-20
2024/05/06 19:35:41;;;;;;;13.95;8.18;;;;;;;14.23;100.00;100922.41;10908409;26;20249;-20
2024/05/06 19:40:45;;;;;;;;;;;;;;;14.19;100.00;100916.91;10913649;26;20091;-20
2024/05/06 19:45:52;;;;;;;15.68;8.35;;;;;;;14.19;100.00;100930.41;10917229;26;19948;-20
2024/05/06 19:50:56;;;;;;;16.65;8.77;;;;;;;14.08;100.00;100926.59;10911632;26;20042;-19
2024/05/06 19:56:00;;;;;;;17.13;9.82;;;;;;;14.10;100.00;100942.47;10911008;26;20050;-20
2024/05/06 20:01:07;;;;;;;14.70;8.02;;;;;;;14.01;100.00;100934.47;10908318;26;23799;-20
2024/05/06 20:06:10;;;;;;;15.50;7.68;;;;;;;14.04;100.00;100938.41;10883390;26;20615;-19
2024/05/06 20:11:14;;;;;;;13.82;8.27;;;;;;;13.96;100.00;100947.41;10896142;26;20008;-20
2024/05/06 20:16:22;;;;;;;17.65;9.55;;;;;;;13.89;100.00;100940.63;10895990;26;20067;-19
2024/05/06 20:21:26;;;;;;;21.15;9.80;;;;;;;13.78;100.00;100953.00;10898861;26;20304;-20
2024/05/06 20:26:30;;;;;;;18.60;10.18;;;;;;;13.74;100.00;100948.59;10903727;26;21714;-19
2024/05/06 20:31:37;;;;;;;19.50;10.27;;;;;;;13.77;100.00;100948.72;10896704;26;20019;-19
2024/05/06 20:36:40;;;;;;;17.45;9.73;;;;;;;13.80;100.00;100955.34;10877192;26;20627;-19
2024/05/06 20:41:44;;;;;;;17.88;9.32;;;;;;;13.83;100.00;100963.59;10880833;26;22611;-20
2024/05/06 20:46:51;;;;;;;19.05;10.18;;;;;;;13.79;100.00;100965.38;10923262;26;20410;-19
2024/05/06 20:51:55;;;;;;;19.63;10.73;;;;;;;13.78;100.00;100974.59;10914340;26;20268;-19
2024/05/06 20:56:58;;;;;;;20.17;10.32;;;;;;;13.76;100.00;100976.84;10912125;26;20014;-19
2024/05/06 21:02:05;;;;;;;20.67;10.75;;;;;;;13.72;100.00;100983.25;10909736;26;21698;-20
2024/05/06 21:07:09;;;;;;;17.65;10.13;;;;;;;13.72;100.00;100986.72;10892752;26;21684;-19
2024/05/06 21:12:13;;;;;;;16.25;9.10;;;;;;;13.70;100.00;100983.56;10870962;26;20008;-21
2024/05/06 21:17:19;;;;;;;17.73;9.68;;;;;;;13.71;100.00;100993.25;10908118;26;24213;-19
2024/05/06 21:22:23;;;;;;;15.63;9.13;;;;;;;13.65;100.00;100999.94;10899531;26;20093;-19
2024/05/06 21:27:27;;;;;;;15.45;8.55;;;;;;;13.68;100.00;101001.22;10904533;26;20071;-19
2024/05/06 21:32:34;;;;;;;16.92;8.85;;;;;;;13.58;100.00;101007.78;10896436;26;20105;-19
2024/05/06 21:37:38;;;;;;;16.15;8.68;;;;;;;13.56;100.00;101004.63;10920072;26;20633;-19
2024/05/06 21:42:44;;;;;;;17.30;9.10;;;;;;;13.58;100.00;101011.28;10899541;26;20026;-20
2024/05/06 21:47:51;;;;;;;15.98;9.00;;;;;;;13.54;100.00;101018.47;10879073;26;20011;-19
2024/05/06 21:52:55;;;;;;;17.40;9.63;;;;;;;13.55;100.00;101013.84;10917402;26;20059;-19
2024/05/06 21:57:58;;;;;;;21.17;10.30;;;;;;;13.49;100.00;101018.63;10914324;26;20011;-19
2024/05/06 22:03:05;;;;;;;16.85;9.60;;;;;;;13.51;100.00;101019.13;10904084;26;20838;-19
2024/05/06 22:08:09;;;;;;;17.13;9.60;;;;;;;13.48;100.00;101027.84;10887252;26;20030;-19
2024/05/06 22:13:13;;;;;;;;;;;;;;;13.56;100.00;101024.31;10905392;26;20027;-20
2024/05/06 22:18:19;;;;;;;15.63;9.13;;;;;;;13.52;100.00;101023.41;10909535;26;19932;-20
2024/05/06 22:23:24;;;;;;;16.38;9.82;;;;;;;13.53;100.00;101032.28;10884085;26;20014;-20
2024/05/06 22:28:28;;;;;;;16.83;9.20;;;;;;;13.47;100.00;101038.97;10907843;26;20023;-20
2024/05/06 22:33:35;;;;;;;16.33;9.45;;;;;;;13.47;100.00;101041.66;10919101;26;20014;-19
2024/05/06 22:38:38;;;;;;;19.10;10.23;;;;;;;13.52;100.00;101046.91;10908799;26;20015;-17
2024/05/06 22:43:42;;;;;;;19.58;10.35;;;;;;;13.46;100.00;101051.69;10908208;26;20015;-16
2024/05/06 22:48:49;;;;;;;17.63;9.43;;;;;;;13.43;100.00;101057.72;10904206;26;20015;-16
2024/05/06 22:53:53;;;;;;;18.05;9.95;;;;;;;13.37;100.00;101058.25;10907027;26;20030;-17
2024/05/06 22:58:56;;;;;;;17.23;9.60;;;;;;;13.34;100.00;101057.00;10917300;26;20528;-16
2024/05/06 23:04:04;;;;;;;16.95;9.68;;;;;;;13.35;100.00;101057.81;10926042;26;20027;-17
2024/05/06 23:10:08;;;;;;;17.33;9.32;;;;;;;13.35;100.00;101068.59;10927507;26;20015;-17
2024/05/06 23:15:12;;;;;;;18.90;9.70;;;;;;;13.40;100.00;101066.47;10912639;26;21520;-19